createdAt,value
2023-04-07T00:00:03.380Z,80195.50
2023-04-07T00:01:44.757Z,80195.38
2023-04-07T00:03:26.248Z,80204.78
2023-04-07T00:05:07.764Z,80195.72
2023-04-07T00:06:49.070Z,80199.28
2023-04-07T00:08:30.398Z,80195.56
2023-04-07T00:10:11.670Z,80191.34
2023-04-07T00:11:52.970Z,80199.63
2023-04-07T00:13:34.318Z,80193.97
2023-04-07T00:15:15.604Z,80195.25
2023-04-07T00:16:56.925Z,80199.06
2023-04-07T00:18:38.260Z,80200.31
2023-04-07T00:20:19.572Z,80198.06
2023-04-07T00:22:00.867Z,80199.97
2023-04-07T00:23:42.162Z,80188.25
2023-04-07T00:25:23.455Z,80194.34
2023-04-07T00:27:04.754Z,80196.34
2023-04-07T00:28:46.083Z,80198.56
2023-04-07T00:30:27.420Z,80193.69
2023-04-07T00:32:08.704Z,80189.88
2023-04-07T00:33:49.990Z,80197.56
2023-04-07T00:35:31.354Z,80188.44
2023-04-07T00:37:12.683Z,80192.44
2023-04-07T00:38:53.999Z,80190.94
2023-04-07T00:40:35.346Z,80182.13
2023-04-07T00:42:16.621Z,80181.47
2023-04-07T00:43:57.906Z,80173.47
2023-04-07T00:45:39.198Z,80172.47
2023-04-07T00:47:20.505Z,80180.59
2023-04-07T00:49:01.798Z,80178.25
2023-04-07T00:50:43.113Z,80179.84
2023-04-07T00:52:24.405Z,80181.75
2023-04-07T00:54:05.936Z,80177.69
2023-04-07T00:55:47.228Z,80172.88
2023-04-07T00:57:28.526Z,80171.91
2023-04-07T00:59:09.808Z,80157.38
2023-04-07T01:00:51.081Z,80158.28
2023-04-07T01:02:32.570Z,80171.22
2023-04-07T01:04:14.092Z,80159.47
2023-04-07T01:05:55.489Z,80157.38
2023-04-07T01:07:36.801Z,80159.97
2023-04-07T01:09:18.072Z,80154.34
2023-04-07T01:10:59.388Z,80146.19
2023-04-07T01:12:40.673Z,80150.81
2023-04-07T01:14:21.964Z,80142.16
2023-04-07T01:16:03.458Z,80133.31
2023-04-07T01:17:44.747Z,80143.94
2023-04-07T01:19:26.132Z,80145.69
2023-04-07T01:21:07.493Z,80136.44
2023-04-07T01:22:48.815Z,80132.66
2023-04-07T01:24:30.182Z,80130.38
2023-04-07T01:26:11.498Z,80123.63
2023-04-07T01:27:52.863Z,80129.09
2023-04-07T01:29:34.153Z,80120.97
2023-04-07T01:31:15.463Z,80119.97
2023-04-07T01:32:56.820Z,80120.19
2023-04-07T01:34:38.081Z,80112.47
2023-04-07T01:36:19.400Z,80120.25
2023-04-07T01:38:00.718Z,80114.63
2023-04-07T01:39:41.994Z,80113.00
2023-04-07T01:41:23.275Z,80111.50
2023-04-07T01:43:04.587Z,80116.91
2023-04-07T01:44:45.885Z,80111.34
2023-04-07T01:46:27.265Z,80117.81
2023-04-07T01:48:08.750Z,80109.53
2023-04-07T01:49:50.183Z,80107.88
2023-04-07T01:51:31.479Z,80117.91
2023-04-07T01:53:12.783Z,80116.84
2023-04-07T01:54:54.066Z,80118.28
2023-04-07T01:56:35.373Z,80112.38
2023-04-07T01:58:16.648Z,80110.22
2023-04-07T01:59:57.923Z,80107.41
2023-04-07T02:01:39.355Z,80100.28
2023-04-07T02:03:21.089Z,80097.13
2023-04-07T02:05:02.856Z,80103.03
2023-04-07T02:06:44.164Z,80103.69
2023-04-07T02:08:25.477Z,80100.31
2023-04-07T02:10:06.770Z,80099.88
2023-04-07T02:11:48.062Z,80097.56
2023-04-07T02:13:29.354Z,80093.56
2023-04-07T02:15:10.635Z,80094.34
2023-04-07T02:16:51.971Z,80094.84
2023-04-07T02:18:33.287Z,80096.91
2023-04-07T02:20:14.592Z,80095.91
2023-04-07T02:21:55.908Z,80088.94
2023-04-07T02:23:37.205Z,80084.22
2023-04-07T02:25:18.496Z,80078.28
2023-04-07T02:26:59.802Z,80081.16
2023-04-07T02:28:41.078Z,80076.38
2023-04-07T02:30:22.334Z,80090.84
2023-04-07T02:32:03.775Z,80085.78
2023-04-07T02:33:45.228Z,80088.44
2023-04-07T02:35:26.508Z,80087.56
2023-04-07T02:37:07.853Z,80079.09
2023-04-07T02:38:49.224Z,80075.09
2023-04-07T02:40:30.506Z,80077.44
2023-04-07T02:42:11.786Z,80073.66
2023-04-07T02:43:53.340Z,80072.47
2023-04-07T02:45:34.912Z,80077.78
2023-04-07T02:47:16.239Z,80079.97
2023-04-07T02:48:57.516Z,80067.97
2023-04-07T02:50:38.806Z,80073.81
2023-04-07T02:52:20.199Z,80072.66
2023-04-07T02:54:01.485Z,80061.66
2023-04-07T02:55:42.854Z,80057.75
2023-04-07T02:57:24.144Z,80045.28
2023-04-07T02:59:05.428Z,80040.72
2023-04-07T03:00:46.890Z,80040.72
2023-04-07T03:02:28.427Z,80044.06
2023-04-07T03:04:09.882Z,80033.78
2023-04-07T03:05:51.270Z,80030.78
2023-04-07T03:07:32.572Z,80022.91
2023-04-07T03:09:13.869Z,80027.81
2023-04-07T03:10:55.180Z,80026.34
2023-04-07T03:12:36.483Z,80025.94
2023-04-07T03:14:17.854Z,80031.69
2023-04-07T03:15:59.140Z,80028.78
2023-04-07T03:17:40.472Z,80028.44
2023-04-07T03:19:21.750Z,80024.88
2023-04-07T03:21:03.009Z,80028.59
2023-04-07T03:22:44.377Z,80026.69
2023-04-07T03:24:25.683Z,80029.47
2023-04-07T03:26:06.979Z,80027.59
2023-04-07T03:27:48.287Z,80019.75
2023-04-07T03:29:29.556Z,80021.94
2023-04-07T03:31:10.855Z,80014.28
2023-04-07T03:32:52.223Z,80007.50
2023-04-07T03:34:33.533Z,80012.69
2023-04-07T03:36:14.960Z,80014.13
2023-04-07T03:37:56.254Z,80009.25
2023-04-07T03:39:37.574Z,80006.91
2023-04-07T03:41:18.910Z,80003.44
2023-04-07T03:43:00.203Z,80005.50
2023-04-07T03:44:41.517Z,80008.22
2023-04-07T03:46:22.828Z,80000.44
2023-04-07T03:48:04.207Z,80003.72
2023-04-07T03:49:45.483Z,80004.78
2023-04-07T03:51:26.790Z,80004.09
2023-04-07T03:53:08.075Z,80005.41
2023-04-07T03:54:49.431Z,79997.16
2023-04-07T03:56:30.705Z,79992.44
2023-04-07T03:58:11.979Z,79985.25
2023-04-07T03:59:53.279Z,79989.81
2023-04-07T04:01:34.620Z,79982.69
2023-04-07T04:03:16.067Z,79988.59
2023-04-07T04:04:57.694Z,79989.28
2023-04-07T04:06:39.088Z,79987.88
2023-04-07T04:08:20.373Z,79993.13
2023-04-07T04:10:01.685Z,79990.16
2023-04-07T04:11:42.969Z,79992.66
2023-04-07T04:13:24.262Z,79981.59
2023-04-07T04:15:05.585Z,79974.00
2023-04-07T04:16:46.895Z,79980.69
2023-04-07T04:18:28.218Z,79978.94
2023-04-07T04:20:09.577Z,79974.81
2023-04-07T04:21:50.894Z,79967.78
2023-04-07T04:23:32.180Z,79972.47
2023-04-07T04:25:13.490Z,79971.50
2023-04-07T04:26:54.875Z,79971.59
2023-04-07T04:28:36.189Z,79971.31
2023-04-07T04:30:17.510Z,79961.09
2023-04-07T04:31:58.856Z,79955.72
2023-04-07T04:33:40.151Z,79964.91
2023-04-07T04:35:21.424Z,79967.59
2023-04-07T04:37:02.794Z,79962.81
2023-04-07T04:38:44.129Z,79958.59
2023-04-07T04:40:25.483Z,79957.69
2023-04-07T04:42:06.795Z,79958.78
2023-04-07T04:43:48.148Z,79964.19
2023-04-07T04:45:29.445Z,79959.00
2023-04-07T04:47:10.751Z,79959.69
2023-04-07T04:48:52.081Z,79955.06
2023-04-07T04:50:33.397Z,79961.84
2023-04-07T04:52:14.711Z,79959.69
2023-04-07T04:53:56.054Z,79959.38
2023-04-07T04:55:37.362Z,79965.47
2023-04-07T04:57:18.657Z,79958.25
2023-04-07T04:58:59.937Z,79949.94
2023-04-07T05:00:41.271Z,79953.00
2023-04-07T05:02:22.639Z,79955.78
2023-04-07T05:04:04.206Z,79956.84
2023-04-07T05:05:45.638Z,79946.53
2023-04-07T05:07:26.949Z,79946.75
2023-04-07T05:09:08.270Z,79948.88
2023-04-07T05:10:49.584Z,79951.53
2023-04-07T05:12:30.873Z,79951.91
2023-04-07T05:14:12.182Z,79945.03
2023-04-07T05:15:53.485Z,79943.06
2023-04-07T05:17:34.826Z,79947.69
2023-04-07T05:19:16.179Z,79947.19
2023-04-07T05:20:57.453Z,79935.00
2023-04-07T05:22:38.734Z,79932.53
2023-04-07T05:24:20.055Z,79931.75
2023-04-07T05:26:01.346Z,79930.88
2023-04-07T05:27:42.597Z,79925.28
2023-04-07T05:29:23.905Z,79922.34
2023-04-07T05:31:07.399Z,79925.97
2023-04-07T05:32:49.215Z,79915.50
2023-04-07T05:34:30.568Z,79909.03
2023-04-07T05:36:11.894Z,79907.31
2023-04-07T05:37:53.169Z,79906.63
2023-04-07T05:39:34.683Z,79903.13
2023-04-07T05:41:16.188Z,79891.94
2023-04-07T05:42:57.450Z,79887.97
2023-04-07T05:44:38.758Z,79885.28
2023-04-07T05:46:20.095Z,79882.09
2023-04-07T05:48:01.447Z,79878.44
2023-04-07T05:49:42.824Z,79866.00
2023-04-07T05:51:24.108Z,79868.19
2023-04-07T05:53:05.398Z,79863.63
2023-04-07T05:54:46.722Z,79864.00
2023-04-07T05:56:27.997Z,79859.66
2023-04-07T05:58:09.337Z,79855.06
2023-04-07T05:59:50.713Z,79859.34
2023-04-07T06:01:32.071Z,79861.47
2023-04-07T06:03:13.481Z,79858.63
2023-04-07T06:04:55.013Z,79850.25
2023-04-07T06:06:36.306Z,79853.16
2023-04-07T06:08:17.591Z,79853.03
2023-04-07T06:09:59.163Z,79849.59
2023-04-07T06:11:40.689Z,79839.41
2023-04-07T06:13:21.978Z,79847.66
2023-04-07T06:15:03.559Z,79836.50
2023-04-07T06:16:45.260Z,79837.19
2023-04-07T06:18:26.868Z,79841.72
2023-04-07T06:20:08.366Z,79830.09
2023-04-07T06:21:49.685Z,79825.47
2023-04-07T06:23:31.016Z,79839.75
2023-04-07T06:25:12.388Z,79830.97
2023-04-07T06:26:53.698Z,79843.53
2023-04-07T06:28:34.988Z,79845.66
2023-04-07T06:30:16.300Z,79845.19
2023-04-07T06:31:57.605Z,79848.38
2023-04-07T06:33:38.920Z,79847.28
2023-04-07T06:35:20.897Z,79852.50
2023-04-07T06:37:02.587Z,79849.56
2023-04-07T06:38:43.969Z,79855.50
2023-04-07T06:40:25.423Z,79867.25
2023-04-07T06:42:06.763Z,79874.09
2023-04-07T06:43:48.211Z,79889.53
2023-04-07T06:45:29.616Z,79894.31
2023-04-07T06:47:11.397Z,79895.78
2023-04-07T06:48:53.008Z,79893.91
2023-04-07T06:50:34.360Z,79900.97
2023-04-07T06:52:15.656Z,79903.06
2023-04-07T06:53:56.953Z,79913.22
2023-04-07T06:55:38.262Z,79913.59
2023-04-07T06:57:19.571Z,79909.53
2023-04-07T06:59:00.840Z,79918.81
2023-04-07T07:00:42.136Z,79919.53
2023-04-07T07:02:23.519Z,79925.94
2023-04-07T07:04:05.077Z,79934.00
2023-04-07T07:05:46.470Z,79938.81
2023-04-07T07:07:27.755Z,79947.22
2023-04-07T07:09:09.058Z,79949.97
2023-04-07T07:10:50.360Z,79951.50
2023-04-07T07:12:31.665Z,79958.03
2023-04-07T07:14:12.992Z,79964.13
2023-04-07T07:15:54.543Z,79966.31
2023-04-07T07:17:35.954Z,79967.44
2023-04-07T07:19:17.274Z,79974.53
2023-04-07T07:20:58.909Z,79972.34
2023-04-07T07:22:40.472Z,79973.22
2023-04-07T07:24:21.931Z,79975.75
2023-04-07T07:26:03.403Z,79984.69
2023-04-07T07:27:46.041Z,79982.69
2023-04-07T07:29:30.539Z,79979.56
2023-04-07T07:31:12.061Z,79990.63
2023-04-07T07:32:53.843Z,79989.94
2023-04-07T07:34:35.288Z,79992.13
2023-04-07T07:36:16.645Z,79995.78
2023-04-07T07:37:57.976Z,79984.13
2023-04-07T07:39:39.264Z,79987.38
2023-04-07T07:41:20.672Z,79985.16
2023-04-07T07:43:01.949Z,79988.50
2023-04-07T07:44:43.303Z,79984.66
2023-04-07T07:46:27.504Z,79976.00
2023-04-07T07:48:11.882Z,79974.19
2023-04-07T07:49:54.676Z,79977.94
2023-04-07T07:51:36.889Z,79973.03
2023-04-07T07:53:18.192Z,79972.91
2023-04-07T07:54:59.545Z,79971.47
2023-04-07T07:56:40.933Z,79967.16
2023-04-07T07:58:23.428Z,79964.72
2023-04-07T08:00:05.971Z,79965.88
2023-04-07T08:01:47.274Z,79969.63
2023-04-07T08:03:28.733Z,79971.41
2023-04-07T08:05:10.193Z,79972.22
2023-04-07T08:06:51.476Z,79968.97
2023-04-07T08:08:32.773Z,79972.75
2023-04-07T08:10:14.112Z,79968.19
2023-04-07T08:11:55.620Z,79968.91
2023-04-07T08:13:36.955Z,79965.88
2023-04-07T08:15:19.878Z,79963.84
2023-04-07T08:17:05.023Z,79958.78
2023-04-07T08:18:47.063Z,79960.09
2023-04-07T08:20:28.881Z,79957.66
2023-04-07T08:22:10.169Z,79954.84
2023-04-07T08:23:51.624Z,79949.47
2023-04-07T08:25:32.967Z,79952.59
2023-04-07T08:27:14.392Z,79948.78
2023-04-07T08:28:55.700Z,79951.06
2023-04-07T08:30:37.076Z,79942.38
2023-04-07T08:32:18.416Z,79931.81
2023-04-07T08:33:59.730Z,79939.13
2023-04-07T08:35:42.638Z,79926.19
2023-04-07T08:37:23.931Z,79926.47
2023-04-07T08:39:05.247Z,79929.63
2023-04-07T08:40:46.537Z,79932.47
2023-04-07T08:42:27.859Z,79931.53
2023-04-07T08:44:09.295Z,79927.94
2023-04-07T08:45:53.015Z,79929.38
2023-04-07T08:47:34.892Z,79919.38
2023-04-07T08:49:16.270Z,79924.03
2023-04-07T08:50:57.582Z,79931.72
2023-04-07T08:52:38.844Z,79929.44
2023-04-07T08:54:20.161Z,79935.75
2023-04-07T08:56:01.484Z,79936.06
2023-04-07T08:57:42.748Z,79935.91
2023-04-07T08:59:24.054Z,79938.75
2023-04-07T09:01:05.384Z,79938.72
2023-04-07T09:02:46.812Z,79942.53
2023-04-07T09:04:28.120Z,79948.88
2023-04-07T09:06:09.461Z,79957.13
2023-04-07T09:07:50.757Z,79966.56
2023-04-07T09:09:32.075Z,79968.25
2023-04-07T09:11:13.353Z,79991.50
2023-04-07T09:12:54.687Z,79990.69
2023-04-07T09:14:36.009Z,80001.41
2023-04-07T09:16:17.565Z,80003.03
2023-04-07T09:17:58.980Z,80007.78
2023-04-07T09:19:40.340Z,80009.81
2023-04-07T09:21:21.732Z,80016.00
2023-04-07T09:23:03.058Z,80017.03
2023-04-07T09:24:44.407Z,80017.84
2023-04-07T09:26:25.771Z,80022.03
2023-04-07T09:28:07.079Z,80011.97
2023-04-07T09:29:48.379Z,79995.84
2023-04-07T09:31:29.726Z,79985.84
2023-04-07T09:33:11.288Z,79990.16
2023-04-07T09:34:53.046Z,79991.63
2023-04-07T09:36:34.812Z,79994.59
2023-04-07T09:38:16.462Z,79996.84
2023-04-07T09:39:57.876Z,79994.88
2023-04-07T09:41:39.213Z,79993.75
2023-04-07T09:43:20.574Z,79981.03
2023-04-07T09:45:01.953Z,79984.25
2023-04-07T09:46:44.238Z,79975.25
2023-04-07T09:48:25.861Z,79978.44
2023-04-07T09:50:07.342Z,79970.97
2023-04-07T09:51:48.671Z,79966.03
2023-04-07T09:53:30.236Z,79971.22
2023-04-07T09:55:11.838Z,79960.66
2023-04-07T09:56:53.128Z,79955.38
2023-04-07T09:58:34.490Z,79960.31
2023-04-07T10:00:15.868Z,79948.09
2023-04-07T10:01:57.365Z,79952.38
2023-04-07T10:03:38.915Z,79951.22
2023-04-07T10:05:20.337Z,79947.19
2023-04-07T10:07:01.717Z,79946.81
2023-04-07T10:08:43.051Z,79944.09
2023-04-07T10:10:24.416Z,79948.59
2023-04-07T10:12:05.678Z,79950.91
2023-04-07T10:13:47.218Z,79951.56
2023-04-07T10:15:28.785Z,79952.47
2023-04-07T10:17:10.048Z,79946.66
2023-04-07T10:18:51.352Z,79955.03
2023-04-07T10:20:32.810Z,79948.56
2023-04-07T10:22:14.235Z,79947.94
2023-04-07T10:23:55.519Z,79952.53
2023-04-07T10:25:36.828Z,79945.34
2023-04-07T10:27:18.116Z,79946.16
2023-04-07T10:28:59.437Z,79938.84
2023-04-07T10:30:40.766Z,79932.56
2023-04-07T10:32:22.392Z,79932.38
2023-04-07T10:34:04.024Z,79939.09
2023-04-07T10:35:45.337Z,79937.41
2023-04-07T10:37:26.696Z,79928.97
2023-04-07T10:39:08.025Z,79932.41
2023-04-07T10:40:49.395Z,79931.09
2023-04-07T10:42:30.742Z,79922.53
2023-04-07T10:44:12.698Z,79926.75
2023-04-07T10:45:54.580Z,79920.38
2023-04-07T10:47:36.011Z,79925.88
2023-04-07T10:49:18.915Z,79925.84
2023-04-07T10:51:00.511Z,79925.91
2023-04-07T10:52:41.793Z,79930.16
2023-04-07T10:54:23.285Z,79923.81
2023-04-07T10:56:04.940Z,79922.13
2023-04-07T10:57:46.218Z,79924.41
2023-04-07T10:59:27.706Z,79914.47
2023-04-07T11:01:09.369Z,79921.91
2023-04-07T11:02:51.106Z,79920.34
2023-04-07T11:04:33.374Z,79909.06
2023-04-07T11:06:14.753Z,79906.16
2023-04-07T11:07:56.152Z,79906.56
2023-04-07T11:09:37.498Z,79908.00
2023-04-07T11:11:18.764Z,79913.25
2023-04-07T11:13:00.057Z,79907.13
2023-04-07T11:14:41.434Z,79906.31
2023-04-07T11:16:24.771Z,79906.44
2023-04-07T11:18:06.113Z,79902.91
2023-04-07T11:19:47.475Z,79901.72
2023-04-07T11:21:28.791Z,79905.56
2023-04-07T11:23:10.590Z,79893.72
2023-04-07T11:24:52.087Z,79897.88
2023-04-07T11:26:33.416Z,79898.25
2023-04-07T11:28:14.741Z,79904.72
2023-04-07T11:29:56.075Z,79903.03
2023-04-07T11:31:37.457Z,79897.97
2023-04-07T11:33:18.796Z,79895.94
2023-04-07T11:35:00.171Z,79901.50
2023-04-07T11:36:41.554Z,79900.44
2023-04-07T11:38:22.870Z,79899.97
2023-04-07T11:40:04.185Z,79909.81
2023-04-07T11:41:45.543Z,79909.16
2023-04-07T11:43:26.846Z,79912.56
2023-04-07T11:45:08.510Z,79908.78
2023-04-07T11:46:50.104Z,79905.72
2023-04-07T11:48:31.409Z,79903.56
2023-04-07T11:50:14.324Z,79907.31
2023-04-07T11:51:55.777Z,79904.63
2023-04-07T11:53:37.069Z,79894.31
2023-04-07T11:55:20.829Z,79902.78
2023-04-07T11:57:03.732Z,79899.09
2023-04-07T11:58:45.024Z,79903.53
2023-04-07T12:00:26.313Z,79903.38
2023-04-07T12:02:07.760Z,79898.38
2023-04-07T12:03:49.359Z,79900.47
2023-04-07T12:05:31.014Z,79901.47
2023-04-07T12:07:12.365Z,79907.03
2023-04-07T12:08:54.317Z,79897.59
2023-04-07T12:10:35.847Z,79905.28
2023-04-07T12:12:17.132Z,79907.38
2023-04-07T12:13:58.424Z,79905.63
2023-04-07T12:15:39.779Z,79904.72
2023-04-07T12:17:21.168Z,79906.81
2023-04-07T12:19:02.490Z,79905.59
2023-04-07T12:20:43.852Z,79913.75
2023-04-07T12:22:25.149Z,79919.66
2023-04-07T12:24:06.464Z,79918.69
2023-04-07T12:25:48.317Z,79909.53
2023-04-07T12:27:42.195Z,79908.44
2023-04-07T12:29:24.569Z,79906.28
2023-04-07T12:31:05.897Z,79908.13
2023-04-07T12:32:47.238Z,79907.66
2023-04-07T12:34:28.640Z,79906.69
2023-04-07T12:36:10.048Z,79923.81
2023-04-07T12:37:51.340Z,79919.13
2023-04-07T12:39:32.726Z,79924.72
2023-04-07T12:41:14.295Z,79929.88
2023-04-07T12:42:55.586Z,79923.63
2023-04-07T12:44:36.895Z,79918.75
2023-04-07T12:46:18.202Z,79919.47
2023-04-07T12:47:59.685Z,79924.03
2023-04-07T12:49:41.003Z,79919.22
2023-04-07T12:51:22.376Z,79917.66
2023-04-07T12:53:03.731Z,79920.84
2023-04-07T12:54:45.100Z,79923.53
2023-04-07T12:56:26.425Z,79924.72
2023-04-07T12:58:07.729Z,79928.09
2023-04-07T12:59:49.151Z,79920.47
2023-04-07T13:01:30.637Z,79918.47
2023-04-07T13:03:12.184Z,79914.53
2023-04-07T13:04:53.947Z,79915.38
2023-04-07T13:06:35.524Z,79916.94
2023-04-07T13:08:16.821Z,79919.03
2023-04-07T13:09:58.277Z,79919.91
2023-04-07T13:11:39.563Z,79924.59
2023-04-07T13:13:20.868Z,79931.41
2023-04-07T13:15:02.221Z,79932.34
2023-04-07T13:16:43.529Z,79927.53
2023-04-07T13:18:24.926Z,79938.09
2023-04-07T13:20:06.260Z,79935.22
2023-04-07T13:21:48.376Z,79941.91
2023-04-07T13:23:39.356Z,79942.22
2023-04-07T13:25:23.884Z,79941.13
2023-04-07T13:27:05.840Z,79941.22
2023-04-07T13:28:47.340Z,79951.72
2023-04-07T13:30:28.661Z,79949.47
2023-04-07T13:32:10.064Z,79945.03
2023-04-07T13:33:51.506Z,79941.47
2023-04-07T13:35:33.134Z,79939.53
2023-04-07T13:37:14.824Z,79940.19
2023-04-07T13:38:56.260Z,79938.41
2023-04-07T13:40:37.580Z,79946.22
2023-04-07T13:42:18.937Z,79936.13
2023-04-07T13:44:00.312Z,79939.41
2023-04-07T13:45:41.651Z,79937.56
2023-04-07T13:47:23.339Z,79940.34
2023-04-07T13:49:04.829Z,79938.69
2023-04-07T13:50:46.130Z,79937.03
2023-04-07T13:52:27.545Z,79935.19
2023-04-07T13:54:08.848Z,79934.81
2023-04-07T13:55:50.170Z,79942.56
2023-04-07T13:57:31.488Z,79943.53
2023-04-07T13:59:13.364Z,79946.31
2023-04-07T14:00:55.004Z,79938.06
2023-04-07T14:02:36.549Z,79941.50
2023-04-07T14:04:17.979Z,79941.19
2023-04-07T14:05:59.315Z,79942.69
2023-04-07T14:07:40.663Z,79949.28
2023-04-07T14:09:24.718Z,79952.75
2023-04-07T14:11:06.024Z,79951.63
2023-04-07T14:12:47.331Z,79944.41
2023-04-07T14:14:28.598Z,79945.91
2023-04-07T14:16:10.190Z,79942.09
2023-04-07T14:17:51.823Z,79953.84
2023-04-07T14:19:33.214Z,79951.09
2023-04-07T14:21:14.711Z,79950.81
2023-04-07T14:22:56.223Z,79959.00
2023-04-07T14:24:37.504Z,79950.66
2023-04-07T14:26:18.818Z,79952.78
2023-04-07T14:28:00.148Z,79954.00
2023-04-07T14:29:41.436Z,79953.84
2023-04-07T14:31:23.037Z,79952.56
2023-04-07T14:33:05.190Z,79951.34
2023-04-07T14:34:46.851Z,79951.31
2023-04-07T14:36:28.295Z,79951.69
2023-04-07T14:38:09.595Z,79951.09
2023-04-07T14:40:01.292Z,79950.63
2023-04-07T14:41:43.596Z,79952.28
2023-04-07T14:43:24.948Z,79951.81
2023-04-07T14:45:06.257Z,79950.81
2023-04-07T14:46:47.639Z,79954.34
2023-04-07T14:48:28.946Z,79951.88
2023-04-07T14:50:10.235Z,79952.81
2023-04-07T14:51:51.560Z,79947.00
2023-04-07T14:53:32.894Z,79942.84
2023-04-07T14:55:14.185Z,79945.13
2023-04-07T14:56:55.506Z,79942.94
2023-04-07T14:58:37.073Z,79939.50
2023-04-07T15:00:18.597Z,79943.44
2023-04-07T15:02:00.052Z,79939.34
2023-04-07T15:03:41.511Z,79943.81
2023-04-07T15:05:22.900Z,79946.13
2023-04-07T15:07:04.312Z,79943.81
2023-04-07T15:08:45.657Z,79940.00
2023-04-07T15:10:26.912Z,79945.03
2023-04-07T15:12:08.195Z,79944.63
2023-04-07T15:13:49.700Z,79950.09
2023-04-07T15:15:31.258Z,79941.47
2023-04-07T15:17:12.664Z,79940.75
2023-04-07T15:18:53.965Z,79938.44
2023-04-07T15:20:35.310Z,79941.38
2023-04-07T15:22:17.305Z,79944.31
2023-04-07T15:23:58.801Z,79937.72
2023-04-07T15:25:40.124Z,79938.31
2023-04-07T15:27:21.496Z,79953.13
2023-04-07T15:29:02.830Z,79938.66
2023-04-07T15:30:44.118Z,79951.16
2023-04-07T15:32:25.508Z,79952.41
2023-04-07T15:34:06.822Z,79952.78
2023-04-07T15:35:48.266Z,79951.47
2023-04-07T15:37:30.307Z,79951.34
2023-04-07T15:39:11.590Z,79951.88
2023-04-07T15:40:52.876Z,79953.88
2023-04-07T15:42:34.264Z,79954.19
2023-04-07T15:44:15.554Z,79964.88
2023-04-07T15:45:57.499Z,79957.00
2023-04-07T15:47:39.012Z,79961.47
2023-04-07T15:49:20.295Z,79965.03
2023-04-07T15:51:01.617Z,79968.09
2023-04-07T15:52:42.937Z,79966.41
2023-04-07T15:54:24.256Z,79969.22
2023-04-07T15:56:05.557Z,79975.13
2023-04-07T15:57:46.867Z,79968.25
2023-04-07T15:59:28.162Z,79977.44
2023-04-07T16:01:09.453Z,79970.88
2023-04-07T16:02:50.990Z,79971.78
2023-04-07T16:04:32.404Z,79976.84
2023-04-07T16:06:13.716Z,79973.34
2023-04-07T16:07:55.035Z,79976.34
2023-04-07T16:09:36.318Z,79976.78
2023-04-07T16:11:17.651Z,79978.03
2023-04-07T16:12:59.637Z,79972.16
2023-04-07T16:14:41.153Z,79974.56
2023-04-07T16:16:22.570Z,79971.25
2023-04-07T16:18:03.970Z,79971.81
2023-04-07T16:19:45.308Z,79977.47
2023-04-07T16:21:26.628Z,79976.63
2023-04-07T16:23:08.211Z,79984.34
2023-04-07T16:24:49.628Z,79986.81
2023-04-07T16:26:30.941Z,79982.97
2023-04-07T16:28:12.365Z,79979.31
2023-04-07T16:29:53.652Z,79992.50
2023-04-07T16:31:34.982Z,79983.41
2023-04-07T16:33:16.295Z,79982.53
2023-04-07T16:34:57.566Z,79988.91
2023-04-07T16:36:38.848Z,79996.25
2023-04-07T16:38:20.856Z,79991.69
2023-04-07T16:40:02.375Z,79999.41
2023-04-07T16:41:43.686Z,79996.63
2023-04-07T16:43:25.008Z,79993.38
2023-04-07T16:45:06.315Z,79995.44
2023-04-07T16:46:47.600Z,80002.69
2023-04-07T16:48:28.961Z,80002.75
2023-04-07T16:50:10.246Z,79999.00
2023-04-07T16:51:51.601Z,80008.66
2023-04-07T16:53:33.705Z,80007.38
2023-04-07T16:55:15.160Z,80011.00
2023-04-07T16:56:56.567Z,80009.38
2023-04-07T16:58:38.077Z,80016.88
2023-04-07T17:00:19.486Z,80017.47
2023-04-07T17:02:00.819Z,80017.22
2023-04-07T17:03:42.364Z,80022.91
2023-04-07T17:05:23.911Z,80024.09
2023-04-07T17:07:08.080Z,80021.66
2023-04-07T17:08:49.989Z,80020.63
2023-04-07T17:10:31.360Z,80019.66
2023-04-07T17:12:12.634Z,80019.28
2023-04-07T17:13:54.827Z,80026.41
2023-04-07T17:15:37.867Z,80037.75
2023-04-07T17:17:19.272Z,80034.16
2023-04-07T17:19:00.575Z,80029.97
2023-04-07T17:20:41.938Z,80032.31
2023-04-07T17:22:23.224Z,80034.75
2023-04-07T17:24:04.533Z,80045.25
2023-04-07T17:25:45.858Z,80041.06
2023-04-07T17:27:27.184Z,80039.50
2023-04-07T17:29:08.591Z,80038.03
2023-04-07T17:30:49.923Z,80044.72
2023-04-07T17:32:31.500Z,80043.19
2023-04-07T17:34:13.071Z,80040.59
2023-04-07T17:35:54.481Z,80043.28
2023-04-07T17:37:35.774Z,80050.56
2023-04-07T17:39:17.411Z,80053.53
2023-04-07T17:40:58.732Z,80052.47
2023-04-07T17:42:40.046Z,80054.00
2023-04-07T17:44:21.368Z,80049.66
2023-04-07T17:46:02.989Z,80066.03
2023-04-07T17:47:44.340Z,80057.06
2023-04-07T17:49:25.657Z,80056.72
2023-04-07T17:51:06.971Z,80060.03
2023-04-07T17:52:48.264Z,80054.31
2023-04-07T17:54:29.560Z,80059.41
2023-04-07T17:56:11.195Z,80055.06
2023-04-07T17:57:52.765Z,80063.69
2023-04-07T17:59:34.131Z,80063.41
2023-04-07T18:01:15.836Z,80073.31
2023-04-07T18:02:57.574Z,80073.56
2023-04-07T18:04:39.160Z,80073.09
2023-04-07T18:06:20.566Z,80072.44
2023-04-07T18:08:04.669Z,80077.22
2023-04-07T18:09:46.293Z,80073.81
2023-04-07T18:11:27.716Z,80077.09
2023-04-07T18:13:09.014Z,80077.44
2023-04-07T18:14:50.602Z,80078.34
2023-04-07T18:16:32.266Z,80076.97
2023-04-07T18:18:13.605Z,80076.94
2023-04-07T18:19:54.883Z,80078.47
2023-04-07T18:21:36.297Z,80083.25
2023-04-07T18:23:17.599Z,80082.94
2023-04-07T18:24:58.909Z,80085.63
2023-04-07T18:26:40.225Z,80091.44
2023-04-07T18:28:21.491Z,80084.72
2023-04-07T18:30:02.835Z,80087.38
2023-04-07T18:31:44.191Z,80093.75
2023-04-07T18:33:25.519Z,80092.16
2023-04-07T18:35:07.084Z,80086.84
2023-04-07T18:36:48.727Z,80098.09
2023-04-07T18:38:30.042Z,80100.97
2023-04-07T18:40:11.530Z,80104.41
2023-04-07T18:41:55.324Z,80099.59
2023-04-07T18:43:36.636Z,80103.63
2023-04-07T18:45:18.519Z,80098.47
2023-04-07T18:47:00.398Z,80095.91
2023-04-07T18:48:41.854Z,80104.91
2023-04-07T18:50:23.173Z,80100.44
2023-04-07T18:52:04.784Z,80093.81
2023-04-07T18:53:46.596Z,80106.72
2023-04-07T18:55:28.176Z,80109.66
2023-04-07T18:57:09.477Z,80108.94
2023-04-07T18:58:51.011Z,80105.66
2023-04-07T19:00:32.498Z,80114.09
2023-04-07T19:02:13.905Z,80115.44
2023-04-07T19:03:55.544Z,80116.66
2023-04-07T19:05:37.099Z,80109.06
2023-04-07T19:07:18.411Z,80112.16
2023-04-07T19:08:59.682Z,80113.03
2023-04-07T19:10:41.217Z,80118.03
2023-04-07T19:12:22.950Z,80118.41
2023-04-07T19:14:04.369Z,80122.09
2023-04-07T19:15:45.808Z,80112.72
2023-04-07T19:17:27.218Z,80120.00
2023-04-07T19:19:08.568Z,80121.94
2023-04-07T19:20:50.182Z,80122.13
2023-04-07T19:22:31.612Z,80120.34
2023-04-07T19:24:12.981Z,80130.09
2023-04-07T19:25:54.350Z,80132.53
2023-04-07T19:27:35.677Z,80134.72
2023-04-07T19:29:17.002Z,80127.00
2023-04-07T19:30:58.314Z,80133.91
2023-04-07T19:32:39.816Z,80130.59
2023-04-07T19:34:21.497Z,80135.75
2023-04-07T19:36:02.997Z,80133.91
2023-04-07T19:37:45.674Z,80134.03
2023-04-07T19:39:28.892Z,80138.69
2023-04-07T19:41:10.181Z,80135.09
2023-04-07T19:42:51.498Z,80144.50
2023-04-07T19:44:32.855Z,80143.06
2023-04-07T19:46:14.181Z,80145.47
2023-04-07T19:47:55.504Z,80142.75
2023-04-07T19:49:36.921Z,80148.16
2023-04-07T19:51:18.477Z,80151.13